Аэропорт: Уфа. Уфа

ICAO: UWUU

METAR:
2019-09-21 16:00:00
UWUU 211600Z VRB01MPS 9999 OVC014CB 07/07 Q1005 R14R/2///50 TEMPO 2100 -SHRA BKN007CB
METAR:
2019-09-21 13:59:00
TAF UWUU 211359Z 2115/2215 18003G08MPS 6000 BKN015CB TEMPO 2115/2118 21003G08MPS 3100 -TSRAGS BKN007CB FM211800 32003G08MPS 9999 BKN020CB TEMPO 2118/2121 24003MPS 3100 -SHRA BKN007CB TEMPO 2121/2206 2100 -SHRA BR BKN007CB